Accueil
METAR-TAF:

METAR-TAF

Aéroports :

Aéroport de Chambéry-Savoie

Chambery / Aix-Les-Bains, France

latitude: 45-39N, longitude: 005-53E, altitude: 235 m

Observation

Le bulletin a été fait il y a 21 minutes, à 06:30 UTC
Vent 1 kt de sud
Température -1°C
Humidité 100%
Pression 1031 hPa
Visibilité: 2700 m
brume

METAR: LFLB 020630Z AUTO 19001KT 2700 BR NSC M01/M01 Q1031 BECMG 9999 NSW

Heure: 07:51 (06:51 UTC)

Prévision

Le bulletin a été fait il y a 4 heures et 51 minutes, à 02:00 UTC
Prévision valable du 02 à 03 UTC au 03 à 03 UTC
Vent 3 kt de direction variable
Visibilité: 6000 m
Temporairement
du 02 à 03 UTC au 02 à 08 UTC
Visibilité: 3000 m
brume
Evoluant progressivement
du 02 à 08 UTC au 02 à 10 UTC
Visibilité 10 km ou plus
pas de nuages en-dessous de 1500 mètres et pas de cumulonimbus.

TAF: LFLB 020200Z 0203/0303 VRB03KT 6000 NSC TEMPO 0203/0208 3000 BR BECMG 0208/0210 CAVOK

Observations et prévisions météorologiques de plus de 4000 aéroports (messages METAR et TAF).

Les stations disponibles sont représentées par des disques jaunes et rouges sur la carte.

Passer la souris dessus pour voir le nom de la station.

Cliquer dessus pour voir les observations et prévisions météorologiques.

Pour changer de carte: cliquez sur les boutons verts avec une croix noire pour zoomer, sur le bouton vert avec un tiret pour effectuer un zoom arrière, ou sur les flèches vertes pour les cartes adjacentes.


METAR-TAF: